Time;durP1;ratioP1;P1;durP2;ratioP2;P2;SDS_P1;SDS_P2;PMS_P1;PMS_P2;Temp;Humidity;BMP_temperature;BMP_pressure;BME280_temperature;BME280_humidity;BME280_pressure;Samples;Min_cycle;Max_cycle;Signal;HPM_P1;HPM_P2
2022/07/06 04:40:32;;;;;;;;;;;25.20;76.70;;;;;;5132171;22;19936;-81
2022/07/06 04:42:59;;;;;;;;;;;25.20;76.70;;;;;;5016088;28;19925;-81
2022/07/06 04:45:26;;;;;;;;;;;25.20;76.70;;;;;;5019089;28;19961;-81
2022/07/06 04:47:53;;;;;;;;;;;25.20;76.70;;;;;;5018334;28;19925;-81
2022/07/06 04:50:19;;;;;;;;;;;25.20;76.70;;;;;;5017850;28;19993;-80
2022/07/06 04:52:46;;;;;;;;;;;25.30;76.70;;;;;;5017169;28;19983;-81
2022/07/06 04:55:14;;;;;;;;;;;25.30;76.70;;;;;;5016241;28;19992;-82
2022/07/06 04:57:42;;;;;;;;;;;25.20;76.70;;;;;;5016716;28;19929;-82
2022/07/06 05:00:10;;;;;;;;;;;25.30;76.70;;;;;;5017069;28;20456;-81
2022/07/06 05:02:37;;;;;;;;;;;25.20;76.70;;;;;;5018191;28;20345;-77
2022/07/06 05:05:04;;;;;;;;;;;25.30;76.80;;;;;;5018632;28;19929;-78
2022/07/06 05:07:33;;;;;;;;;;;25.30;76.80;;;;;;5019288;28;20033;-80
2022/07/06 05:10:00;;;;;;;;;;;25.30;76.80;;;;;;5016631;28;19929;-80
2022/07/06 05:12:26;;;;;;;;;;;25.30;76.80;;;;;;5015779;28;20020;-80
2022/07/06 05:14:54;;;;;;;;;;;25.30;76.80;;;;;;5015722;28;19972;-80
2022/07/06 05:17:21;;;;;;;;;;;25.30;76.80;;;;;;5014922;28;20384;-81
2022/07/06 05:19:48;;;;;;;;;;;25.30;76.80;;;;;;5014592;28;20359;-81
2022/07/06 05:22:14;;;;;;;;;;;25.20;76.80;;;;;;5015654;28;20347;-81
2022/07/06 05:24:41;;;;;;;;;;;25.20;76.80;;;;;;5015393;28;20020;-81
2022/07/06 05:27:08;;;;;;;;;;;25.30;76.80;;;;;;5015844;28;19968;-81
2022/07/06 05:29:34;;;;;;;;;;;25.20;76.70;;;;;;5015689;28;20020;-81
2022/07/06 05:32:02;;;;;;;;;;;25.20;76.70;;;;;;5015783;28;19930;-81
2022/07/06 05:34:29;;;;;;;;;;;25.30;76.80;;;;;;5014770;28;19929;-81
2022/07/06 05:36:56;;;;;;;;;;;25.20;76.50;;;;;;5015514;28;19930;-80
2022/07/06 05:39:23;;;;;;;;;;;25.20;76.30;;;;;;5019120;28;20016;-81
2022/07/06 05:41:50;;;;;;;;;;;25.20;76.20;;;;;;5019818;28;20392;-81
2022/07/06 05:44:16;;;;;;;;;;;25.20;76.20;;;;;;5019794;28;20020;-80
2022/07/06 05:46:43;;;;;;;;;;;25.20;76.10;;;;;;5019557;28;20000;-81
2022/07/06 05:51:55;;;;;;;;;;;25.20;75.70;;;;;;5020804;28;19935;-82
2022/07/06 05:54:21;;;;;;;;;;;25.20;75.50;;;;;;5019601;28;20020;-82
2022/07/06 05:56:48;;;;;;;;;;;25.20;75.40;;;;;;5020137;28;20024;-82
2022/07/06 05:59:15;;;;;;;;;;;25.20;75.20;;;;;;5020153;28;20389;-81
2022/07/06 06:01:41;;;;;;;;;;;25.20;75.00;;;;;;5020513;28;19936;-82
2022/07/06 06:04:08;;;;;;;;;;;25.20;74.70;;;;;;5020028;28;20357;-82
2022/07/06 06:06:36;;;;;;;;;;;25.20;74.50;;;;;;5020012;28;19989;-81
2022/07/06 06:09:03;;;;;;;;;;;25.20;74.20;;;;;;5020065;28;19926;-81
2022/07/06 06:11:29;;;;;;;;;;;25.20;73.90;;;;;;5020354;28;20017;-81
2022/07/06 06:13:56;;;;;;;;;;;25.20;73.40;;;;;;5019507;28;20460;-81
2022/07/06 06:16:23;;;;;;;;;;;25.20;73.30;;;;;;5019237;28;20300;-81
2022/07/06 06:18:49;;;;;;;;;;;25.10;73.20;;;;;;5018686;28;20355;-81
2022/07/06 06:21:16;;;;;;;;;;;25.10;72.90;;;;;;5019165;28;19926;-81
2022/07/06 06:23:44;;;;;;;;;;;25.10;72.50;;;;;;5019153;28;20008;-81
2022/07/06 06:26:11;;;;;;;;;;;25.10;72.20;;;;;;5018918;28;20008;-81
2022/07/06 06:28:37;;;;;;;;;;;25.10;71.80;;;;;;5018930;28;19932;-81
2022/07/06 06:31:04;;;;;;;;;;;25.10;71.50;;;;;;5018905;28;19979;-81
2022/07/06 06:33:31;;;;;;;;;;;25.10;71.20;;;;;;5018369;28;19929;-81
2022/07/06 06:35:57;;;;;;;;;;;25.10;70.80;;;;;;5018732;28;19925;-81
2022/07/06 06:38:26;;;;;;;;;;;25.10;70.50;;;;;;5019171;28;19972;-79
2022/07/06 06:40:54;;;;;;;;;;;25.10;70.20;;;;;;5019447;28;20359;-81
2022/07/06 06:43:20;;;;;;;;;;;25.10;70.00;;;;;;5020620;28;19926;-81
2022/07/06 06:45:47;;;;;;;;;;;25.10;69.80;;;;;;5024677;28;19971;-80
2022/07/06 06:48:14;;;;;;;;;;;25.10;69.60;;;;;;5020825;28;19925;-82
2022/07/06 06:50:40;;;;;;;;;;;25.10;69.30;;;;;;5020712;28;20016;-81
2022/07/06 06:53:07;;;;;;;;;;;25.10;69.10;;;;;;5023093;28;19964;-82
2022/07/06 06:55:35;;;;;;;;;;;25.10;68.90;;;;;;5022542;28;19932;-82
2022/07/06 06:58:03;;;;;;;;;;;25.10;68.70;;;;;;5022230;28;19966;-82
2022/07/06 07:00:30;;;;;;;;;;;25.10;68.50;;;;;;5021731;28;19925;-82
2022/07/06 07:02:57;;;;;;;;;;;25.10;68.20;;;;;;5021535;28;19972;-82
2022/07/06 07:05:24;;;;;;;;;;;25.10;67.90;;;;;;5020931;28;19925;-82
2022/07/06 07:07:51;;;;;;;;;;;25.10;67.60;;;;;;5022130;28;19925;-82
2022/07/06 07:10:19;;;;;;;;;;;25.10;67.30;;;;;;5022249;28;19926;-82
2022/07/06 07:12:46;;;;;;;;;;;25.10;67.20;;;;;;5022117;28;19930;-82
2022/07/06 07:15:16;;;;;;;;;;;25.10;67.20;;;;;;5022667;28;19929;-82
2022/07/06 07:17:43;;;;;;;;;;;25.10;67.20;;;;;;5021972;28;19936;-82
2022/07/06 07:20:11;;;;;;;;;;;25.10;66.90;;;;;;5021355;28;19964;-82
2022/07/06 07:22:38;;;;;;;;;;;25.10;66.60;;;;;;5022007;28;19925;-82
2022/07/06 07:25:05;;;;;;;;;;;25.10;66.30;;;;;;5022842;28;19925;-82
2022/07/06 07:27:32;;;;;;;;;;;25.10;66.10;;;;;;5021626;28;19930;-82
2022/07/06 07:29:59;;;;;;;;;;;25.10;65.80;;;;;;5021374;28;19932;-82
2022/07/06 07:32:28;;;;;;;;;;;25.10;65.70;;;;;;5022000;28;19925;-82
2022/07/06 07:34:55;;;;;;;;;;;25.10;65.50;;;;;;5021791;28;19933;-82
2022/07/06 07:37:22;;;;;;;;;;;25.10;65.20;;;;;;5021776;28;19925;-82
2022/07/06 07:39:49;;;;;;;;;;;25.10;65.00;;;;;;5021067;28;19925;-82
2022/07/06 07:42:16;;;;;;;;;;;25.10;64.80;;;;;;5023814;28;19960;-83
2022/07/06 07:44:43;;;;;;;;;;;25.10;64.50;;;;;;5023122;28;20297;-83
2022/07/06 07:47:10;;;;;;;;;;;25.10;64.40;;;;;;5021770;28;19925;-83
2022/07/06 07:49:39;;;;;;;;;;;25.10;64.20;;;;;;5022106;28;20015;-83
2022/07/06 07:52:06;;;;;;;;;;;25.10;64.10;;;;;;5022223;28;19932;-83
2022/07/06 07:54:33;;;;;;;;;;;25.10;63.90;;;;;;5022307;28;20337;-83
2022/07/06 07:57:00;;;;;;;;;;;25.10;63.70;;;;;;5022556;28;19985;-83
2022/07/06 07:59:27;;;;;;;;;;;25.10;63.50;;;;;;5021676;28;19925;-83
2022/07/06 08:01:54;;;;;;;;;;;25.10;63.30;;;;;;5021407;28;19925;-83
2022/07/06 08:04:21;;;;;;;;;;;25.10;63.20;;;;;;5021795;28;19948;-83
2022/07/06 08:06:50;;;;;;;;;;;25.10;63.00;;;;;;5018975;28;19925;-83
2022/07/06 08:09:17;;;;;;;;;;;25.10;62.90;;;;;;5021802;28;20011;-83
2022/07/06 08:11:45;;;;;;;;;;;25.10;62.70;;;;;;5022027;28;19952;-83
2022/07/06 08:14:14;;;;;;;;;;;25.10;62.50;;;;;;5021272;28;19972;-83
2022/07/06 08:16:41;;;;;;;;;;;25.10;62.30;;;;;;5022897;28;19992;-83
2022/07/06 08:19:08;;;;;;;;;;;25.10;62.20;;;;;;5022049;28;19925;-83
2022/07/06 08:21:35;;;;;;;;;;;25.10;62.00;;;;;;5024800;28;19926;-83
2022/07/06 08:24:04;;;;;;;;;;;25.10;61.90;;;;;;5027630;28;19932;-83
2022/07/06 08:26:31;;;;;;;;;;;25.10;61.70;;;;;;5023905;28;20411;-83
2022/07/06 08:28:58;;;;;;;;;;;25.10;61.50;;;;;;5022324;28;19925;-83
2022/07/06 08:31:27;;;;;;;;;;;25.10;61.20;;;;;;5024452;28;19925;-83
2022/07/06 08:33:54;;;;;;;;;;;25.10;61.00;;;;;;5024756;28;19926;-83
2022/07/06 08:36:21;;;;;;;;;;;25.10;61.10;;;;;;5023778;28;19925;-83
2022/07/06 08:38:48;;;;;;;;;;;25.10;61.00;;;;;;5022108;28;19932;-82
2022/07/06 08:41:17;;;;;;;;;;;25.10;61.00;;;;;;5022010;28;19925;-81
2022/07/06 08:43:44;;;;;;;;;;;25.10;60.90;;;;;;5021838;28;19964;-82
2022/07/06 08:46:13;;;;;;;;;;;25.10;60.60;;;;;;5020674;28;19925;-82
2022/07/06 08:48:41;;;;;;;;;;;25.10;60.50;;;;;;5021312;28;19929;-82
2022/07/06 08:51:08;;;;;;;;;;;25.10;60.30;;;;;;5022824;28;20265;-82
2022/07/06 08:53:35;;;;;;;;;;;25.10;59.90;;;;;;5022853;28;20312;-82
2022/07/06 08:56:02;;;;;;;;;;;25.10;59.80;;;;;;5021377;28;19931;-81
2022/07/06 08:58:33;;;;;;;;;;;25.10;59.70;;;;;;5021448;28;20357;-82
2022/07/06 09:01:00;;;;;;;;;;;25.00;59.50;;;;;;5021451;28;19976;-81
2022/07/06 09:03:28;;;;;;;;;;;25.10;59.40;;;;;;5021744;28;19929;-81
2022/07/06 09:05:57;;;;;;;;;;;25.10;59.40;;;;;;5021560;28;19952;-82
2022/07/06 09:08:25;;;;;;;;;;;25.10;59.30;;;;;;5021591;28;19929;-82
2022/07/06 09:10:52;;;;;;;;;;;25.10;59.20;;;;;;5021826;28;19926;-82
2022/07/06 09:13:19;;;;;;;;;;;25.10;59.10;;;;;;5025051;28;20381;-83
2022/07/06 09:15:47;;;;;;;;;;;25.00;59.00;;;;;;5024855;28;19936;-82
2022/07/06 09:18:15;;;;;;;;;;;25.10;59.00;;;;;;5024975;28;19952;-82
2022/07/06 09:20:42;;;;;;;;;;;25.10;58.90;;;;;;5025033;28;19925;-83
2022/07/06 09:23:10;;;;;;;;;;;25.10;58.80;;;;;;5025198;28;20086;-83
2022/07/06 09:25:37;;;;;;;;;;;25.10;58.70;;;;;;5023617;28;19972;-82
2022/07/06 09:28:06;;;;;;;;;;;25.10;58.70;;;;;;5023531;28;19929;-82
2022/07/06 09:30:33;;;;;;;;;;;25.10;58.60;;;;;;5024330;28;19931;-82
2022/07/06 09:33:02;;;;;;;;;;;25.10;58.50;;;;;;5024590;28;19968;-82
2022/07/06 09:35:30;;;;;;;;;;;25.10;58.50;;;;;;5025935;28;19949;-82
2022/07/06 09:38:04;;;;;;;;;;;25.10;58.40;;;;;;5025203;28;19980;-83
2022/07/06 09:40:31;;;;;;;;;;;25.10;58.40;;;;;;5021440;28;19926;-82
2022/07/06 09:43:08;;;;;;;;;;;25.10;58.30;;;;;;5021035;28;20020;-82
2022/07/06 09:45:36;;;;;;;;;;;25.10;58.30;;;;;;5022237;28;20020;-82
2022/07/06 09:48:07;;;;;;;;;;;25.10;58.20;;;;;;5022582;28;19926;-82
2022/07/06 09:50:39;;;;;;;;;;;25.10;58.10;;;;;;5023397;28;20540;-82
2022/07/06 09:53:06;;;;;;;;;;;25.10;58.10;;;;;;5025506;28;19972;-82
2022/07/06 09:55:34;;;;;;;;;;;25.10;58.00;;;;;;5024812;28;19925;-83
2022/07/06 09:58:01;;;;;;;;;;;25.10;57.90;;;;;;5023841;28;19968;-81
2022/07/06 10:00:27;;;;;;;;;;;25.10;57.70;;;;;;5024196;28;19933;-81
2022/07/06 10:03:15;;;;;;;;;;;25.10;57.60;;;;;;5027485;28;19955;-80
2022/07/06 10:05:47;;;;;;;;;;;25.10;57.50;;;;;;5023721;28;19948;-80
2022/07/06 10:11:50;;;;;;;;;;;25.10;57.30;;;;;;5021385;28;19921;-83
2022/07/06 10:14:18;;;;;;;;;;;25.10;57.10;;;;;;5026403;28;20033;-83
2022/07/06 10:16:46;;;;;;;;;;;25.10;57.10;;;;;;5025699;28;19939;-83
2022/07/06 10:19:14;;;;;;;;;;;25.10;57.10;;;;;;5026008;28;19925;-81
2022/07/06 10:21:43;;;;;;;;;;;25.10;57.00;;;;;;5028326;28;20289;-81
2022/07/06 10:24:10;;;;;;;;;;;25.10;56.90;;;;;;5025574;28;19953;-83
2022/07/06 10:26:39;;;;;;;;;;;25.10;56.80;;;;;;5025086;28;19925;-83
2022/07/06 10:29:07;;;;;;;;;;;25.10;56.70;;;;;;5024330;28;20345;-83
2022/07/06 10:31:35;;;;;;;;;;;25.10;56.60;;;;;;5028388;28;19925;-83
2022/07/06 10:34:04;;;;;;;;;;;25.10;56.60;;;;;;5025395;28;19964;-83
2022/07/06 10:36:31;;;;;;;;;;;25.10;56.50;;;;;;5024751;28;19976;-83
2022/07/06 10:41:02;;;;;;;;;;;25.10;56.50;;;;;;5025550;28;20004;-83
2022/07/06 10:41:45;;;;;;;;;;;25.10;56.40;;;;;;5025182;28;20268;-83
2022/07/06 10:44:16;;;;;;;;;;;25.10;56.40;;;;;;5025627;28;19922;-83
2022/07/06 10:46:50;;;;;;;;;;;25.20;56.40;;;;;;5023949;28;19960;-83
2022/07/06 10:49:17;;;;;;;;;;;25.10;56.20;;;;;;5024815;28;19979;-83
2022/07/06 10:51:44;;;;;;;;;;;25.20;56.20;;;;;;5024823;28;19925;-84
2022/07/06 10:54:13;;;;;;;;;;;25.20;56.20;;;;;;5024481;28;20385;-82
2022/07/06 10:56:41;;;;;;;;;;;25.20;56.10;;;;;;5024691;28;19931;-82
2022/07/06 10:59:12;;;;;;;;;;;25.20;56.10;;;;;;5023170;28;19968;-82
2022/07/06 11:01:39;;;;;;;;;;;25.20;56.70;;;;;;5024724;28;19932;-83
2022/07/06 11:04:07;;;;;;;;;;;25.20;56.10;;;;;;5025269;28;20360;-83
2022/07/06 11:06:36;;;;;;;;;;;25.20;56.10;;;;;;5024531;28;19960;-83
2022/07/06 11:09:04;;;;;;;;;;;25.20;56.10;;;;;;5023168;28;19976;-81
2022/07/06 11:11:45;;;;;;;;;;;25.30;56.20;;;;;;5022573;28;19926;-82
2022/07/06 11:14:14;;;;;;;;;;;25.20;56.10;;;;;;5021413;28;19930;-82
2022/07/06 11:17:02;;;;;;;;;;;25.20;55.90;;;;;;5022101;28;19932;-82
2022/07/06 11:19:30;;;;;;;;;;;25.20;55.80;;;;;;5021852;28;19968;-83
2022/07/06 11:21:58;;;;;;;;;;;25.20;56.00;;;;;;5021613;28;19929;-84
2022/07/06 11:24:26;;;;;;;;;;;25.20;55.20;;;;;;5021244;28;19932;-84
2022/07/06 11:26:55;;;;;;;;;;;25.10;55.00;;;;;;5021036;28;19949;-84
2022/07/06 11:29:23;;;;;;;;;;;25.10;54.80;;;;;;5019651;28;19925;-84
2022/07/06 11:31:52;;;;;;;;;;;25.10;54.70;;;;;;5022257;28;19929;-84
2022/07/06 11:34:19;;;;;;;;;;;25.10;54.50;;;;;;5020872;28;19930;-84
2022/07/06 11:36:47;;;;;;;;;;;25.10;54.40;;;;;;5021132;28;19929;-83
2022/07/06 11:39:15;;;;;;;;;;;25.10;54.30;;;;;;5020746;28;19964;-83
2022/07/06 11:41:42;;;;;;;;;;;25.20;54.30;;;;;;5016912;28;19975;-84
2022/07/06 11:44:10;;;;;;;;;;;25.10;54.20;;;;;;5016340;28;19925;-84
2022/07/06 11:46:37;;;;;;;;;;;25.20;54.20;;;;;;5017797;28;20019;-82
2022/07/06 11:49:04;;;;;;;;;;;25.20;54.20;;;;;;5017288;28;19929;-80
2022/07/06 11:51:32;;;;;;;;;;;25.30;54.20;;;;;;5016618;28;19965;-80
2022/07/06 11:54:00;;;;;;;;;;;25.30;54.20;;;;;;5016820;28;20460;-80
2022/07/06 11:56:28;;;;;;;;;;;25.30;54.20;;;;;;5017235;28;19936;-81
2022/07/06 11:58:55;;;;;;;;;;;25.30;54.00;;;;;;5017682;28;20016;-81
2022/07/06 12:01:24;;;;;;;;;;;25.20;53.70;;;;;;5016556;28;19976;-86
2022/07/06 12:03:51;;;;;;;;;;;25.30;53.80;;;;;;5015475;28;19948;-82
2022/07/06 12:06:19;;;;;;;;;;;25.30;53.90;;;;;;5017833;28;20013;-81
2022/07/06 12:08:47;;;;;;;;;;;25.30;53.80;;;;;;5018396;28;19973;-82
2022/07/06 12:11:21;;;;;;;;;;;25.30;53.60;;;;;;5019495;28;19964;-81
2022/07/06 12:13:47;;;;;;;;;;;25.30;53.60;;;;;;5017840;28;19969;-81
2022/07/06 12:16:16;;;;;;;;;;;25.30;53.70;;;;;;5018438;28;19925;-82
2022/07/06 12:18:44;;;;;;;;;;;25.30;53.70;;;;;;5019320;28;20000;-82
2022/07/06 12:21:13;;;;;;;;;;;25.30;53.60;;;;;;5020189;28;19925;-82
2022/07/06 12:23:44;;;;;;;;;;;25.30;53.60;;;;;;5019149;28;19926;-85
2022/07/06 12:26:11;;;;;;;;;;;25.30;53.50;;;;;;5021258;28;19989;-82
2022/07/06 12:28:38;;;;;;;;;;;25.30;53.30;;;;;;5021521;28;19929;-81
2022/07/06 12:31:04;;;;;;;;;;;25.30;53.10;;;;;;5016255;28;20032;-78
2022/07/06 12:33:31;;;;;;;;;;;25.30;53.00;;;;;;5014811;28;19926;-78
2022/07/06 12:36:08;;;;;;;;;;;25.30;53.00;;;;;;5016018;28;19925;-79
2022/07/06 12:38:35;;;;;;;;;;;25.30;52.90;;;;;;5014820;28;20012;-79
2022/07/06 12:41:02;;;;;;;;;;;25.30;52.80;;;;;;5014443;28;19925;-79
2022/07/06 12:43:35;;;;;;;;;;;25.30;52.80;;;;;;5015312;28;19926;-79
2022/07/06 12:46:19;;;;;;;;;;;25.30;52.80;;;;;;5014638;28;20016;-78
2022/07/06 12:48:52;;;;;;;;;;;25.30;52.70;;;;;;5014497;28;19956;-78
2022/07/06 12:51:20;;;;;;;;;;;25.30;52.50;;;;;;5017115;28;19926;-79
2022/07/06 12:53:47;;;;;;;;;;;25.30;51.90;;;;;;5018630;28;19999;-79
2022/07/06 12:56:17;;;;;;;;;;;25.30;51.70;;;;;;5017584;28;20319;-79
2022/07/06 12:58:57;;;;;;;;;;;25.20;51.30;;;;;;5020183;28;20385;-79
2022/07/06 13:01:24;;;;;;;;;;;25.20;51.30;;;;;;5024623;28;19925;-79
2022/07/06 13:03:54;;;;;;;;;;;25.20;51.30;;;;;;5025335;28;19925;-79
2022/07/06 13:06:29;;;;;;;;;;;25.10;51.10;;;;;;5024828;28;20370;-79
2022/07/06 13:08:56;;;;;;;;;;;25.20;50.90;;;;;;5019237;28;20012;-80
2022/07/06 13:11:23;;;;;;;;;;;25.10;50.60;;;;;;5021644;28;20012;-80
2022/07/06 13:13:49;;;;;;;;;;;25.20;50.40;;;;;;5022428;28;19957;-80
2022/07/06 13:16:16;;;;;;;;;;;25.20;50.20;;;;;;5023133;28;19960;-80
2022/07/06 13:18:43;;;;;;;;;;;25.20;50.10;;;;;;5022761;28;19925;-80
2022/07/06 13:21:11;;;;;;;;;;;25.20;50.00;;;;;;5020937;28;19926;-81
2022/07/06 13:23:39;;;;;;;;;;;25.20;50.40;;;;;;5021898;28;19926;-82
2022/07/06 13:26:05;;;;;;;;;;;25.20;49.60;;;;;;5024916;28;19972;-82
2022/07/06 13:28:32;;;;;;;;;;;25.20;49.50;;;;;;5024419;28;19972;-81
2022/07/06 13:30:59;;;;;;;;;;;25.20;49.90;;;;;;5025707;28;20396;-81
2022/07/06 13:33:25;;;;;;;;;;;25.20;49.20;;;;;;5024833;28;20398;-81
2022/07/06 13:35:52;;;;;;;;;;;25.20;49.00;;;;;;5023836;28;20013;-82
2022/07/06 13:38:19;;;;;;;;;;;25.30;49.00;;;;;;5024010;28;19936;-81
2022/07/06 13:40:47;;;;;;;;;;;25.30;48.90;;;;;;5020192;28;19975;-83
2022/07/06 13:43:14;;;;;;;;;;;25.30;48.80;;;;;;5023208;28;19932;-82
2022/07/06 13:45:41;;;;;;;;;;;25.30;49.20;;;;;;5022720;28;19932;-81
2022/07/06 13:48:07;;;;;;;;;;;25.30;48.60;;;;;;5021512;28;20028;-83
2022/07/06 13:50:34;;;;;;;;;;;25.30;48.50;;;;;;5021105;28;20011;-83
2022/07/06 13:53:01;;;;;;;;;;;25.30;48.40;;;;;;5021900;28;19972;-82
2022/07/06 13:55:27;;;;;;;;;;;25.40;48.40;;;;;;5025053;28;19925;-82
2022/07/06 13:57:55;;;;;;;;;;;25.40;48.30;;;;;;5021862;28;19976;-82
2022/07/06 14:00:22;;;;;;;;;;;25.40;48.20;;;;;;5027248;28;20016;-83
2022/07/06 14:02:49;;;;;;;;;;;25.40;48.10;;;;;;5028531;28;19929;-82
2022/07/06 14:05:15;;;;;;;;;;;25.40;48.00;;;;;;5028904;28;19968;-82
2022/07/06 14:07:42;;;;;;;;;;;25.40;48.00;;;;;;5027026;28;20368;-82
2022/07/06 14:10:09;;;;;;;;;;;25.40;47.90;;;;;;5027444;28;20015;-81
2022/07/06 14:12:36;;;;;;;;;;;25.40;47.80;;;;;;5023153;28;19973;-81
2022/07/06 14:15:04;;;;;;;;;;;25.40;47.80;;;;;;5024384;28;20349;-82
2022/07/06 14:17:31;;;;;;;;;;;25.40;47.80;;;;;;5023728;28;20025;-82
2022/07/06 14:19:58;;;;;;;;;;;25.50;47.80;;;;;;5023631;28;20012;-82
2022/07/06 14:22:24;;;;;;;;;;;25.50;47.80;;;;;;5023704;28;19985;-82
2022/07/06 14:24:51;;;;;;;;;;;25.50;47.70;;;;;;5025506;28;19984;-82
2022/07/06 14:27:18;;;;;;;;;;;25.50;47.70;;;;;;5022488;28;19949;-86
2022/07/06 14:29:45;;;;;;;;;;;25.50;47.70;;;;;;5020654;28;20464;-84
2022/07/06 14:32:14;;;;;;;;;;;25.50;47.70;;;;;;5023910;28;19926;-84
2022/07/06 14:34:42;;;;;;;;;;;25.50;47.70;;;;;;5025077;28;19925;-84
2022/07/06 14:37:09;;;;;;;;;;;25.50;47.60;;;;;;5024394;28;19948;-84
2022/07/06 14:39:36;;;;;;;;;;;25.50;47.60;;;;;;5023984;28;19925;-83
2022/07/06 14:42:03;;;;;;;;;;;25.50;47.60;;;;;;5025055;28;20332;-83
2022/07/06 14:44:30;;;;;;;;;;;25.50;47.60;;;;;;5022254;28;19937;-84
2022/07/06 14:46:57;;;;;;;;;;;25.50;47.60;;;;;;5022763;28;19987;-84
2022/07/06 14:49:26;;;;;;;;;;;25.50;47.70;;;;;;5027167;28;19957;-82
2022/07/06 14:51:53;;;;;;;;;;;25.50;47.60;;;;;;5025524;28;19925;-82
2022/07/06 14:54:20;;;;;;;;;;;25.50;47.60;;;;;;5024971;28;19929;-82
2022/07/06 14:56:47;;;;;;;;;;;25.50;47.60;;;;;;5024236;28;19929;-84
2022/07/06 14:59:16;;;;;;;;;;;25.50;47.70;;;;;;5023553;28;19940;-83
2022/07/06 15:01:45;;;;;;;;;;;25.50;47.70;;;;;;5023409;28;20020;-83
2022/07/06 15:04:12;;;;;;;;;;;25.50;47.70;;;;;;5022789;28;19932;-83
2022/07/06 15:06:40;;;;;;;;;;;25.50;47.70;;;;;;5024173;28;19948;-85
2022/07/06 15:09:07;;;;;;;;;;;25.50;47.70;;;;;;5022386;28;19926;-84
2022/07/06 15:11:34;;;;;;;;;;;25.50;47.70;;;;;;5023856;28;19930;-83
2022/07/06 15:14:01;;;;;;;;;;;25.60;47.80;;;;;;5022243;28;19926;-82
2022/07/06 15:16:28;;;;;;;;;;;25.60;47.80;;;;;;5022913;28;19925;-84
2022/07/06 15:18:55;;;;;;;;;;;25.50;47.80;;;;;;5021028;28;19979;-84
2022/07/06 15:21:22;;;;;;;;;;;25.60;47.80;;;;;;5017700;28;20020;-84
2022/07/06 15:23:50;;;;;;;;;;;25.50;47.80;;;;;;5019943;28;19989;-83
2022/07/06 15:26:16;;;;;;;;;;;25.50;47.80;;;;;;5019194;28;20050;-84
2022/07/06 15:28:43;;;;;;;;;;;25.50;47.90;;;;;;5020069;28;19984;-84
2022/07/06 15:31:10;;;;;;;;;;;25.50;47.90;;;;;;5019150;28;19929;-85
2022/07/06 15:33:37;;;;;;;;;;;25.50;47.90;;;;;;5018165;28;19979;-83
2022/07/06 15:36:04;;;;;;;;;;;25.50;48.60;;;;;;5019576;28;19926;-84
2022/07/06 15:38:32;;;;;;;;;;;25.50;48.00;;;;;;5018019;28;20019;-84
2022/07/06 15:41:02;;;;;;;;;;;25.50;48.00;;;;;;5015804;28;20385;-85
2022/07/06 15:43:29;;;;;;;;;;;25.50;48.00;;;;;;5016010;28;19926;-85
2022/07/06 15:45:57;;;;;;;;;;;25.50;48.10;;;;;;5016357;28;20012;-85
2022/07/06 15:48:24;;;;;;;;;;;25.50;48.10;;;;;;5016374;28;20336;-85
2022/07/06 15:50:50;;;;;;;;;;;25.50;48.10;;;;;;5016179;28;19929;-85
2022/07/06 15:53:17;;;;;;;;;;;25.50;48.10;;;;;;5017250;28;19965;-85
2022/07/06 15:55:44;;;;;;;;;;;25.50;48.10;;;;;;5019029;28;19925;-84
2022/07/06 15:58:12;;;;;;;;;;;25.50;48.20;;;;;;5019468;28;19987;-84
2022/07/06 16:00:39;;;;;;;;;;;25.50;48.20;;;;;;5019091;28;19969;-84
2022/07/06 16:03:06;;;;;;;;;;;25.50;48.20;;;;;;5018097;28;20008;-82
2022/07/06 16:05:32;;;;;;;;;;;25.50;48.30;;;;;;5017343;28;19992;-84
2022/07/06 16:07:59;;;;;;;;;;;25.50;48.30;;;;;;5019604;28;19926;-84
2022/07/06 16:10:28;;;;;;;;;;;25.50;48.40;;;;;;5020704;28;20004;-83
2022/07/06 16:12:54;;;;;;;;;;;25.50;48.50;;;;;;5018181;28;19925;-83
2022/07/06 16:15:23;;;;;;;;;;;25.50;48.60;;;;;;5019076;28;20020;-83
2022/07/06 16:17:49;;;;;;;;;;;25.60;48.70;;;;;;5018139;28;20005;-83
2022/07/06 16:20:16;;;;;;;;;;;25.60;48.70;;;;;;5016708;28;19932;-83
2022/07/06 16:22:43;;;;;;;;;;;25.60;48.80;;;;;;5017655;28;19932;-83
2022/07/06 16:25:10;;;;;;;;;;;25.50;48.80;;;;;;5018273;28;19926;-84
2022/07/06 16:27:38;;;;;;;;;;;25.60;48.80;;;;;;5019666;28;19925;-84
2022/07/06 16:30:06;;;;;;;;;;;25.60;48.90;;;;;;5020625;28;19967;-85
2022/07/06 16:32:34;;;;;;;;;;;25.50;48.90;;;;;;5016720;28;20012;-84
2022/07/06 16:35:01;;;;;;;;;;;25.50;48.90;;;;;;5015907;28;19975;-84
2022/07/06 16:37:28;;;;;;;;;;;25.50;49.00;;;;;;5016315;28;20004;-85
2022/07/06 16:39:54;;;;;;;;;;;25.50;49.00;;;;;;5015776;28;19973;-84
2022/07/06 16:42:21;;;;;;;;;;;25.50;49.00;;;;;;5017009;28;20033;-85
2022/07/06 16:44:48;;;;;;;;;;;25.50;49.00;;;;;;5016716;28;19985;-84
2022/07/06 16:47:14;;;;;;;;;;;25.50;49.00;;;;;;5018208;28;20025;-83
2022/07/06 16:49:43;;;;;;;;;;;25.50;48.90;;;;;;5019170;28;20007;-86
2022/07/06 16:52:09;;;;;;;;;;;25.50;48.80;;;;;;5019345;28;20275;-82
2022/07/06 16:54:36;;;;;;;;;;;25.40;48.60;;;;;;5016975;28;20322;-84
2022/07/06 16:57:03;;;;;;;;;;;25.40;48.50;;;;;;5017237;28;19960;-84
2022/07/06 16:59:29;;;;;;;;;;;25.30;48.40;;;;;;5015812;28;20336;-84
2022/07/06 17:01:56;;;;;;;;;;;25.30;48.20;;;;;;5017161;28;20433;-84
2022/07/06 17:04:23;;;;;;;;;;;25.30;48.10;;;;;;5016769;28;20012;-84
2022/07/06 17:06:51;;;;;;;;;;;25.30;47.90;;;;;;5017098;28;20024;-84
2022/07/06 17:09:17;;;;;;;;;;;25.30;47.80;;;;;;5016014;28;20015;-84
2022/07/06 17:11:44;;;;;;;;;;;25.30;47.70;;;;;;5015339;28;19961;-85
2022/07/06 17:14:11;;;;;;;;;;;25.30;47.60;;;;;;5014215;28;19929;-85
2022/07/06 17:16:38;;;;;;;;;;;25.20;47.50;;;;;;5014397;28;19968;-85
2022/07/06 17:19:06;;;;;;;;;;;25.30;47.40;;;;;;5016033;28;19925;-84
2022/07/06 17:21:32;;;;;;;;;;;25.20;47.20;;;;;;5017467;28;19965;-85
2022/07/06 17:24:00;;;;;;;;;;;25.30;47.30;;;;;;5015659;28;19925;-85
2022/07/06 17:26:27;;;;;;;;;;;25.30;47.40;;;;;;5020329;28;20016;-83
2022/07/06 17:28:56;;;;;;;;;;;25.30;47.40;;;;;;5017048;28;19926;-84
2022/07/06 17:31:23;;;;;;;;;;;25.30;47.40;;;;;;5017142;28;19925;-85
2022/07/06 17:33:49;;;;;;;;;;;25.30;47.30;;;;;;5018214;28;20413;-85
2022/07/06 17:36:16;;;;;;;;;;;25.40;47.40;;;;;;5018869;28;20035;-85
2022/07/06 17:38:43;;;;;;;;;;;25.40;47.30;;;;;;5019193;28;19929;-84
2022/07/06 17:41:11;;;;;;;;;;;25.30;47.30;;;;;;5018475;28;20016;-84
2022/07/06 17:43:37;;;;;;;;;;;25.30;47.30;;;;;;5024475;28;19976;-84
2022/07/06 17:46:04;;;;;;;;;;;25.30;47.20;;;;;;5024534;28;19925;-84
2022/07/06 17:48:30;;;;;;;;;;;25.30;47.30;;;;;;5018311;28;20019;-84
2022/07/06 17:50:57;;;;;;;;;;;25.30;47.30;;;;;;5018625;28;20008;-84
2022/07/06 17:53:24;;;;;;;;;;;25.30;47.20;;;;;;5019229;28;20004;-85
2022/07/06 17:55:51;;;;;;;;;;;25.30;47.20;;;;;;5020125;28;20016;-82
2022/07/06 17:58:19;;;;;;;;;;;25.30;47.20;;;;;;5019217;28;20325;-83
2022/07/06 18:00:45;;;;;;;;;;;25.30;47.10;;;;;;5020205;28;19964;-83
2022/07/06 18:03:12;;;;;;;;;;;25.30;47.10;;;;;;5019616;28;20001;-83
2022/07/06 18:05:39;;;;;;;;;;;25.30;47.00;;;;;;5017391;28;19976;-84
2022/07/06 18:08:05;;;;;;;;;;;25.30;47.00;;;;;;5017717;28;20361;-84
2022/07/06 18:10:33;;;;;;;;;;;25.30;46.90;;;;;;5017387;28;19972;-84
2022/07/06 18:13:00;;;;;;;;;;;25.30;46.90;;;;;;5018170;28;19925;-84
2022/07/06 18:15:28;;;;;;;;;;;25.30;46.90;;;;;;5019905;28;19976;-82
2022/07/06 18:17:55;;;;;;;;;;;25.30;46.80;;;;;;5020619;28;20386;-82
2022/07/06 18:20:22;;;;;;;;;;;25.20;46.60;;;;;;5021135;28;19929;-82
2022/07/06 18:22:49;;;;;;;;;;;25.20;46.50;;;;;;5021869;28;20016;-83
2022/07/06 18:25:16;;;;;;;;;;;25.20;46.40;;;;;;5021649;28;20015;-82
2022/07/06 18:27:42;;;;;;;;;;;25.20;46.40;;;;;;5022342;28;19932;-82
2022/07/06 18:30:10;;;;;;;;;;;25.20;46.40;;;;;;5022238;28;20342;-82
2022/07/06 18:32:38;;;;;;;;;;;25.20;46.40;;;;;;5020971;28;20377;-82
2022/07/06 18:35:05;;;;;;;;;;;25.20;46.40;;;;;;5021466;28;20016;-83
2022/07/06 18:37:31;;;;;;;;;;;25.20;46.40;;;;;;5022571;28;19987;-82
2022/07/06 18:39:58;;;;;;;;;;;25.20;46.40;;;;;;5022582;28;19933;-82
2022/07/06 18:42:25;;;;;;;;;;;25.20;46.40;;;;;;5021104;28;20100;-83
2022/07/06 18:44:51;;;;;;;;;;;25.20;46.40;;;;;;5019788;28;20016;-83
2022/07/06 18:47:21;;;;;;;;;;;25.20;46.40;;;;;;5020569;28;20012;-83
2022/07/06 18:49:49;;;;;;;;;;;25.20;46.40;;;;;;5018912;28;19925;-84
2022/07/06 18:52:16;;;;;;;;;;;25.20;46.40;;;;;;5020910;28;19925;-82
2022/07/06 18:54:43;;;;;;;;;;;25.20;46.40;;;;;;5022152;28;19932;-82
2022/07/06 18:57:09;;;;;;;;;;;25.30;46.40;;;;;;5024464;28;19925;-82
2022/07/06 18:59:36;;;;;;;;;;;25.20;46.40;;;;;;5023627;28;19926;-82
2022/07/06 19:02:03;;;;;;;;;;;25.30;46.40;;;;;;5021749;28;20028;-82
2022/07/06 19:04:30;;;;;;;;;;;25.30;46.40;;;;;;5021541;28;19992;-82